Главная страница
METAR-TAF:

METAR-TAF

Аэропорты :

Гранди-Натал

Натал, Риу-Гранди-ду-Норти, Бразилия

широта: 05-46-05S, долгота: 035-22-34W, высота над уровнем моря: 88 м

Текущие метеонаблюдения

Эта сводка был подготовлена 1 час и 13 минут назад, в 12:00 UTC
Ветер 11 Узел от южный, изменяющийся между юго-юго-восточный и юго-западный
Температура 29°C
Влажность 66%
Давление 1014 hPa
Видимость 10 км и более
Рассеянная облачность на высоте 3000 фута

METAR: SBSG 191200Z 19011KT 150V230 9999 BKN030 29/22 Q1014

Время: 10:13 (13:13 UTC)

Прогноз

Эта сводка был подготовлена 3 часа и 13 минут назад, в 10:00 UTC
Прогноз действительный с 19-го 12 UTC до 20-го 12 UTC
Ветер 13 Узел от южный
Видимость 10 км и более
Рассеянная облачность на высоте 2500 фута
изменения
С 19-го 22 UTC до 19-го 23 UTC
Ветер 6 Узел от южный-юго-западный
Отдельные облака на высоте 1800 фута

TAF: SBSG 191000Z 1912/2012 17013KT 9999 BKN025 TX31/1915Z TN24/2007Z BECMG 1922/1923 20006KT SCT018 RMK PCN

Метеонаблюдения и прогнозы для более 4000 аэропортов (сводки METAR и TAF).

Имеющиеся станции представлены на карте желтыми и красными точками.

Чтобы увидеть название станции, наведите на нее мышь.

Затем щелкните, чтобы увидеть метеонаблюдения и метеопрогнозы.

Управление картой: чтобы увеличить масштаб, щелкните зеленые кнопки с черным крестиком; чтобы уменьшить масштаб, щелкните зеленую кнопку с тире; для просмотра соседних карт щелкайте зеленые стрелки.


METAR-TAF: